Aliso Viejo, California
Current Conditions -  °F | °C
As of 12:53 PM on Wednesday 17 Dec 2014 (Local Time) from KSNA Reporting Station
Broken Clouds Broken Clouds  
Wind Chill: 18°   Ceiling: 25000
Heat Index: 18°   Visibility: 10mi
Dew Point: 10°   Wind: 8mph
Humidity: 58%   Direction: 260°W
Pressure: 30.04"   Gusts: NA
Location:  33.57°N, 117.72°W
Report Text: KSNA 172053Z 26007KT 10SM SCT026 SCT031 BKN250 18/10 A3004 RMK AO2 SLP172 T01830100 58005
Loading
Personal Weather Stations






























Interactive Weather Map New forecast layout! Learn more

10-Day Weather Forecast

Advertisements
Track Severe Weather on mobile